sensor_id;sensor_type;location;lat;lon;timestamp;P1;durP1;ratioP1;P2;durP2;ratioP2
7199;SDS011;3641;49.082;8.200;2023-07-29T00:00:04;3.58;;;1.52;;
7199;SDS011;3641;49.082;8.200;2023-07-29T00:02:32;3.90;;;1.92;;
7199;SDS011;3641;49.082;8.200;2023-07-29T00:04:58;3.50;;;1.65;;
7199;SDS011;3641;49.082;8.200;2023-07-29T00:07:24;2.53;;;1.70;;
7199;SDS011;3641;49.082;8.200;2023-07-29T00:09:51;2.70;;;1.67;;
7199;SDS011;3641;49.082;8.200;2023-07-29T00:12:18;4.78;;;1.75;;
7199;SDS011;3641;49.082;8.200;2023-07-29T00:14:45;3.33;;;1.80;;
7199;SDS011;3641;49.082;8.200;2023-07-29T00:17:12;3.20;;;1.92;;
7199;SDS011;3641;49.082;8.200;2023-07-29T00:19:38;3.35;;;1.85;;
7199;SDS011;3641;49.082;8.200;2023-07-29T00:22:05;2.45;;;1.58;;
7199;SDS011;3641;49.082;8.200;2023-07-29T00:24:33;3.22;;;1.83;;
7199;SDS011;3641;49.082;8.200;2023-07-29T00:26:59;3.80;;;1.70;;
7199;SDS011;3641;49.082;8.200;2023-07-29T00:29:26;3.30;;;1.90;;
7199;SDS011;3641;49.082;8.200;2023-07-29T00:31:54;6.85;;;1.92;;
7199;SDS011;3641;49.082;8.200;2023-07-29T00:34:20;7.43;;;1.60;;
7199;SDS011;3641;49.082;8.200;2023-07-29T00:36:46;2.92;;;1.77;;
7199;SDS011;3641;49.082;8.200;2023-07-29T00:39:13;6.03;;;1.92;;
7199;SDS011;3641;49.082;8.200;2023-07-29T00:41:39;3.47;;;1.73;;
7199;SDS011;3641;49.082;8.200;2023-07-29T00:44:06;5.25;;;1.98;;
7199;SDS011;3641;49.082;8.200;2023-07-29T00:46:32;4.22;;;1.73;;
7199;SDS011;3641;49.082;8.200;2023-07-29T00:49:02;3.63;;;1.77;;
7199;SDS011;3641;49.082;8.200;2023-07-29T00:51:28;3.67;;;2.00;;
7199;SDS011;3641;49.082;8.200;2023-07-29T00:53:55;3.70;;;2.10;;
7199;SDS011;3641;49.082;8.200;2023-07-29T00:56:21;3.55;;;1.95;;
7199;SDS011;3641;49.082;8.200;2023-07-29T00:58:48;3.60;;;2.10;;
7199;SDS011;3641;49.082;8.200;2023-07-29T01:01:14;4.30;;;1.80;;
7199;SDS011;3641;49.082;8.200;2023-07-29T01:03:41;5.28;;;2.10;;
7199;SDS011;3641;49.082;8.200;2023-07-29T01:06:12;4.65;;;1.98;;
7199;SDS011;3641;49.082;8.200;2023-07-29T01:08:50;4.40;;;2.10;;
7199;SDS011;3641;49.082;8.200;2023-07-29T01:11:26;5.30;;;1.95;;
7199;SDS011;3641;49.082;8.200;2023-07-29T01:14:02;2.88;;;2.25;;
7199;SDS011;3641;49.082;8.200;2023-07-29T01:16:38;6.13;;;2.42;;
7199;SDS011;3641;49.082;8.200;2023-07-29T01:19:07;4.68;;;2.35;;
7199;SDS011;3641;49.082;8.200;2023-07-29T01:21:43;3.85;;;2.20;;
7199;SDS011;3641;49.082;8.200;2023-07-29T01:24:10;6.32;;;2.30;;
7199;SDS011;3641;49.082;8.200;2023-07-29T01:26:37;4.00;;;2.15;;
7199;SDS011;3641;49.082;8.200;2023-07-29T01:29:03;5.25;;;1.90;;
7199;SDS011;3641;49.082;8.200;2023-07-29T01:31:30;5.82;;;2.33;;
7199;SDS011;3641;49.082;8.200;2023-07-29T01:34:02;6.50;;;2.10;;
7199;SDS011;3641;49.082;8.200;2023-07-29T01:36:35;3.95;;;2.50;;
7199;SDS011;3641;49.082;8.200;2023-07-29T01:39:05;7.88;;;2.65;;
7199;SDS011;3641;49.082;8.200;2023-07-29T01:41:34;6.78;;;2.45;;
7199;SDS011;3641;49.082;8.200;2023-07-29T01:44:02;2.70;;;2.00;;
7199;SDS011;3641;49.082;8.200;2023-07-29T01:46:29;8.27;;;2.80;;
7199;SDS011;3641;49.082;8.200;2023-07-29T01:49:00;3.58;;;2.08;;
7199;SDS011;3641;49.082;8.200;2023-07-29T01:51:26;5.88;;;2.30;;
7199;SDS011;3641;49.082;8.200;2023-07-29T01:57:16;5.93;;;2.47;;
7199;SDS011;3641;49.082;8.200;2023-07-29T01:59:42;8.60;;;2.83;;
7199;SDS011;3641;49.082;8.200;2023-07-29T02:02:08;7.13;;;2.95;;
7199;SDS011;3641;49.082;8.200;2023-07-29T02:04:34;6.18;;;2.70;;
7199;SDS011;3641;49.082;8.200;2023-07-29T02:07:00;6.15;;;3.13;;
7199;SDS011;3641;49.082;8.200;2023-07-29T02:09:27;9.45;;;3.47;;
7199;SDS011;3641;49.082;8.200;2023-07-29T02:11:54;6.75;;;3.35;;
7199;SDS011;3641;49.082;8.200;2023-07-29T02:14:21;13.07;;;4.07;;
7199;SDS011;3641;49.082;8.200;2023-07-29T02:16:48;8.45;;;4.05;;
7199;SDS011;3641;49.082;8.200;2023-07-29T02:19:15;8.68;;;3.90;;
7199;SDS011;3641;49.082;8.200;2023-07-29T02:21:41;6.15;;;3.63;;
7199;SDS011;3641;49.082;8.200;2023-07-29T02:24:08;7.80;;;3.95;;
7199;SDS011;3641;49.082;8.200;2023-07-29T02:26:34;5.97;;;4.22;;
7199;SDS011;3641;49.082;8.200;2023-07-29T02:29:01;7.88;;;4.55;;
7199;SDS011;3641;49.082;8.200;2023-07-29T02:31:28;9.50;;;3.88;;
7199;SDS011;3641;49.082;8.200;2023-07-29T02:33:55;9.60;;;4.10;;
7199;SDS011;3641;49.082;8.200;2023-07-29T02:36:21;7.13;;;4.05;;
7199;SDS011;3641;49.082;8.200;2023-07-29T02:38:48;6.80;;;3.88;;
7199;SDS011;3641;49.082;8.200;2023-07-29T02:41:14;8.77;;;4.43;;
7199;SDS011;3641;49.082;8.200;2023-07-29T02:43:41;9.10;;;3.90;;
7199;SDS011;3641;49.082;8.200;2023-07-29T02:46:08;6.32;;;4.20;;
7199;SDS011;3641;49.082;8.200;2023-07-29T02:48:36;7.55;;;4.25;;
7199;SDS011;3641;49.082;8.200;2023-07-29T02:51:02;8.68;;;4.07;;
7199;SDS011;3641;49.082;8.200;2023-07-29T02:53:29;7.25;;;4.55;;
7199;SDS011;3641;49.082;8.200;2023-07-29T02:55:55;8.75;;;4.47;;
7199;SDS011;3641;49.082;8.200;2023-07-29T02:58:22;9.40;;;4.70;;
7199;SDS011;3641;49.082;8.200;2023-07-29T03:00:48;9.00;;;4.53;;
7199;SDS011;3641;49.082;8.200;2023-07-29T03:03:15;7.80;;;4.35;;
7199;SDS011;3641;49.082;8.200;2023-07-29T03:05:42;9.23;;;4.32;;
7199;SDS011;3641;49.082;8.200;2023-07-29T03:08:09;7.60;;;4.45;;
7199;SDS011;3641;49.082;8.200;2023-07-29T03:10:35;10.98;;;4.53;;
7199;SDS011;3641;49.082;8.200;2023-07-29T03:13:02;9.32;;;5.10;;
7199;SDS011;3641;49.082;8.200;2023-07-29T03:15:28;7.18;;;4.72;;
7199;SDS011;3641;49.082;8.200;2023-07-29T03:17:55;7.57;;;5.10;;
7199;SDS011;3641;49.082;8.200;2023-07-29T03:20:21;9.85;;;4.80;;
7199;SDS011;3641;49.082;8.200;2023-07-29T03:22:49;6.85;;;4.80;;
7199;SDS011;3641;49.082;8.200;2023-07-29T03:25:15;9.50;;;4.63;;
7199;SDS011;3641;49.082;8.200;2023-07-29T03:27:41;9.02;;;4.38;;
7199;SDS011;3641;49.082;8.200;2023-07-29T03:30:08;12.25;;;4.95;;
7199;SDS011;3641;49.082;8.200;2023-07-29T03:32:37;7.07;;;4.65;;
7199;SDS011;3641;49.082;8.200;2023-07-29T03:35:05;7.93;;;4.55;;
7199;SDS011;3641;49.082;8.200;2023-07-29T03:37:32;8.32;;;4.72;;
7199;SDS011;3641;49.082;8.200;2023-07-29T03:40:00;8.10;;;4.72;;
7199;SDS011;3641;49.082;8.200;2023-07-29T03:42:26;7.28;;;4.55;;
7199;SDS011;3641;49.082;8.200;2023-07-29T03:44:52;10.35;;;4.53;;
7199;SDS011;3641;49.082;8.200;2023-07-29T03:47:19;8.68;;;4.00;;
7199;SDS011;3641;49.082;8.200;2023-07-29T03:49:45;6.85;;;4.20;;
7199;SDS011;3641;49.082;8.200;2023-07-29T03:52:12;6.97;;;3.90;;
7199;SDS011;3641;49.082;8.200;2023-07-29T03:54:38;6.53;;;3.42;;
7199;SDS011;3641;49.082;8.200;2023-07-29T03:57:06;5.07;;;3.60;;
7199;SDS011;3641;49.082;8.200;2023-07-29T03:59:33;6.25;;;3.70;;
7199;SDS011;3641;49.082;8.200;2023-07-29T04:01:59;9.93;;;3.75;;
7199;SDS011;3641;49.082;8.200;2023-07-29T04:04:25;8.38;;;3.78;;
7199;SDS011;3641;49.082;8.200;2023-07-29T04:06:52;9.52;;;3.33;;
7199;SDS011;3641;49.082;8.200;2023-07-29T04:09:18;6.03;;;3.53;;
7199;SDS011;3641;49.082;8.200;2023-07-29T04:11:45;7.68;;;3.60;;
7199;SDS011;3641;49.082;8.200;2023-07-29T04:14:13;7.13;;;3.55;;
7199;SDS011;3641;49.082;8.200;2023-07-29T04:16:39;12.73;;;3.80;;
7199;SDS011;3641;49.082;8.200;2023-07-29T04:19:05;7.18;;;3.75;;
7199;SDS011;3641;49.082;8.200;2023-07-29T04:21:32;6.30;;;3.08;;
7199;SDS011;3641;49.082;8.200;2023-07-29T04:23:58;9.18;;;3.95;;
7199;SDS011;3641;49.082;8.200;2023-07-29T04:26:25;8.27;;;3.70;;
7199;SDS011;3641;49.082;8.200;2023-07-29T04:28:51;7.13;;;4.00;;
7199;SDS011;3641;49.082;8.200;2023-07-29T04:31:19;6.22;;;3.22;;
7199;SDS011;3641;49.082;8.200;2023-07-29T04:33:45;7.57;;;3.30;;
7199;SDS011;3641;49.082;8.200;2023-07-29T04:36:11;7.18;;;3.60;;
7199;SDS011;3641;49.082;8.200;2023-07-29T04:38:38;7.07;;;3.63;;
7199;SDS011;3641;49.082;8.200;2023-07-29T04:41:04;8.10;;;3.80;;
7199;SDS011;3641;49.082;8.200;2023-07-29T04:43:32;9.35;;;4.38;;
7199;SDS011;3641;49.082;8.200;2023-07-29T04:45:59;6.15;;;3.80;;
7199;SDS011;3641;49.082;8.200;2023-07-29T04:48:26;6.88;;;4.03;;
7199;SDS011;3641;49.082;8.200;2023-07-29T04:50:53;7.85;;;3.70;;
7199;SDS011;3641;49.082;8.200;2023-07-29T04:53:19;5.88;;;3.80;;
7199;SDS011;3641;49.082;8.200;2023-07-29T04:55:46;6.47;;;3.58;;
7199;SDS011;3641;49.082;8.200;2023-07-29T04:58:12;6.65;;;3.78;;
7199;SDS011;3641;49.082;8.200;2023-07-29T05:00:39;9.25;;;4.03;;
7199;SDS011;3641;49.082;8.200;2023-07-29T05:03:05;8.45;;;3.75;;
7199;SDS011;3641;49.082;8.200;2023-07-29T05:05:33;8.70;;;3.55;;
7199;SDS011;3641;49.082;8.200;2023-07-29T05:07:59;8.20;;;4.03;;
7199;SDS011;3641;49.082;8.200;2023-07-29T05:10:25;6.53;;;3.80;;
7199;SDS011;3641;49.082;8.200;2023-07-29T05:12:52;8.30;;;4.18;;
7199;SDS011;3641;49.082;8.200;2023-07-29T05:15:18;7.80;;;4.20;;
7199;SDS011;3641;49.082;8.200;2023-07-29T05:17:45;5.40;;;4.00;;
7199;SDS011;3641;49.082;8.200;2023-07-29T05:20:11;5.38;;;3.70;;
7199;SDS011;3641;49.082;8.200;2023-07-29T05:22:39;8.45;;;3.70;;
7199;SDS011;3641;49.082;8.200;2023-07-29T05:25:06;7.05;;;4.00;;
7199;SDS011;3641;49.082;8.200;2023-07-29T05:27:33;7.20;;;4.22;;
7199;SDS011;3641;49.082;8.200;2023-07-29T05:29:59;6.47;;;3.83;;
7199;SDS011;3641;49.082;8.200;2023-07-29T05:32:25;8.18;;;4.63;;
7199;SDS011;3641;49.082;8.200;2023-07-29T05:34:52;6.70;;;4.30;;
7199;SDS011;3641;49.082;8.200;2023-07-29T05:37:18;6.15;;;4.70;;
7199;SDS011;3641;49.082;8.200;2023-07-29T05:39:46;8.98;;;4.63;;
7199;SDS011;3641;49.082;8.200;2023-07-29T05:42:12;7.70;;;4.72;;
7199;SDS011;3641;49.082;8.200;2023-07-29T05:44:39;8.85;;;4.60;;
7199;SDS011;3641;49.082;8.200;2023-07-29T05:47:05;8.55;;;5.00;;
7199;SDS011;3641;49.082;8.200;2023-07-29T05:49:32;8.38;;;5.35;;
7199;SDS011;3641;49.082;8.200;2023-07-29T05:51:58;6.88;;;4.95;;
7199;SDS011;3641;49.082;8.200;2023-07-29T05:54:25;10.32;;;5.00;;
7199;SDS011;3641;49.082;8.200;2023-07-29T05:56:52;8.25;;;5.50;;
7199;SDS011;3641;49.082;8.200;2023-07-29T05:59:19;8.13;;;5.63;;
7199;SDS011;3641;49.082;8.200;2023-07-29T06:01:45;9.30;;;5.75;;
7199;SDS011;3641;49.082;8.200;2023-07-29T06:04:11;10.43;;;5.20;;
7199;SDS011;3641;49.082;8.200;2023-07-29T06:06:38;9.43;;;5.72;;
7199;SDS011;3641;49.082;8.200;2023-07-29T06:09:04;10.38;;;6.03;;
7199;SDS011;3641;49.082;8.200;2023-07-29T06:11:31;9.50;;;6.43;;
7199;SDS011;3641;49.082;8.200;2023-07-29T06:13:58;9.45;;;5.43;;
7199;SDS011;3641;49.082;8.200;2023-07-29T06:16:25;10.20;;;5.70;;
7199;SDS011;3641;49.082;8.200;2023-07-29T06:18:51;9.20;;;5.97;;
7199;SDS011;3641;49.082;8.200;2023-07-29T06:21:18;8.00;;;5.50;;
7199;SDS011;3641;49.082;8.200;2023-07-29T06:23:45;7.95;;;4.85;;
7199;SDS011;3641;49.082;8.200;2023-07-29T06:26:11;9.43;;;5.53;;
7199;SDS011;3641;49.082;8.200;2023-07-29T06:28:38;7.10;;;5.10;;
7199;SDS011;3641;49.082;8.200;2023-07-29T06:31:06;9.52;;;5.47;;
7199;SDS011;3641;49.082;8.200;2023-07-29T06:33:32;7.40;;;5.03;;
7199;SDS011;3641;49.082;8.200;2023-07-29T06:35:59;8.95;;;5.03;;
7199;SDS011;3641;49.082;8.200;2023-07-29T06:38:25;8.98;;;5.45;;
7199;SDS011;3641;49.082;8.200;2023-07-29T06:40:51;8.77;;;4.70;;
7199;SDS011;3641;49.082;8.200;2023-07-29T06:43:18;9.13;;;4.53;;
7199;SDS011;3641;49.082;8.200;2023-07-29T06:45:44;7.45;;;4.70;;
7199;SDS011;3641;49.082;8.200;2023-07-29T06:48:12;13.73;;;4.30;;
7199;SDS011;3641;49.082;8.200;2023-07-29T06:50:39;8.55;;;4.63;;
7199;SDS011;3641;49.082;8.200;2023-07-29T06:53:05;7.35;;;4.45;;
7199;SDS011;3641;49.082;8.200;2023-07-29T06:55:32;8.35;;;3.92;;
7199;SDS011;3641;49.082;8.200;2023-07-29T06:57:58;7.43;;;4.15;;
7199;SDS011;3641;49.082;8.200;2023-07-29T07:00:25;8.40;;;4.32;;
7199;SDS011;3641;49.082;8.200;2023-07-29T07:02:51;5.45;;;3.95;;
7199;SDS011;3641;49.082;8.200;2023-07-29T07:05:19;6.57;;;4.10;;
7199;SDS011;3641;49.082;8.200;2023-07-29T07:07:45;7.05;;;3.72;;
7199;SDS011;3641;49.082;8.200;2023-07-29T07:10:12;9.00;;;3.60;;
7199;SDS011;3641;49.082;8.200;2023-07-29T07:12:38;7.50;;;3.53;;
7199;SDS011;3641;49.082;8.200;2023-07-29T07:15:05;7.03;;;3.50;;
7199;SDS011;3641;49.082;8.200;2023-07-29T07:17:32;5.95;;;3.60;;
7199;SDS011;3641;49.082;8.200;2023-07-29T07:19:58;6.82;;;4.00;;
7199;SDS011;3641;49.082;8.200;2023-07-29T07:22:26;7.10;;;3.58;;
7199;SDS011;3641;49.082;8.200;2023-07-29T07:24:53;8.63;;;3.92;;
7199;SDS011;3641;49.082;8.200;2023-07-29T07:27:19;6.75;;;3.58;;
7199;SDS011;3641;49.082;8.200;2023-07-29T07:29:45;8.38;;;3.60;;
7199;SDS011;3641;49.082;8.200;2023-07-29T07:32:12;5.53;;;3.35;;
7199;SDS011;3641;49.082;8.200;2023-07-29T07:34:38;4.63;;;3.00;;
7199;SDS011;3641;49.082;8.200;2023-07-29T07:37:05;6.65;;;3.10;;
7199;SDS011;3641;49.082;8.200;2023-07-29T07:39:33;5.95;;;2.70;;
7199;SDS011;3641;49.082;8.200;2023-07-29T07:41:59;5.45;;;3.28;;
7199;SDS011;3641;49.082;8.200;2023-07-29T07:44:26;5.97;;;2.80;;
7199;SDS011;3641;49.082;8.200;2023-07-29T07:46:52;5.32;;;2.72;;
7199;SDS011;3641;49.082;8.200;2023-07-29T07:49:19;5.38;;;2.67;;
7199;SDS011;3641;49.082;8.200;2023-07-29T07:51:45;7.00;;;2.70;;
7199;SDS011;3641;49.082;8.200;2023-07-29T07:54:12;4.85;;;2.60;;
7199;SDS011;3641;49.082;8.200;2023-07-29T07:56:40;3.78;;;2.42;;
7199;SDS011;3641;49.082;8.200;2023-07-29T07:59:06;6.05;;;2.95;;
7199;SDS011;3641;49.082;8.200;2023-07-29T08:01:34;7.93;;;2.97;;
7199;SDS011;3641;49.082;8.200;2023-07-29T08:04:01;4.43;;;2.60;;
7199;SDS011;3641;49.082;8.200;2023-07-29T08:06:28;5.72;;;3.00;;
7199;SDS011;3641;49.082;8.200;2023-07-29T08:08:54;7.03;;;2.70;;
7199;SDS011;3641;49.082;8.200;2023-07-29T08:11:21;5.55;;;2.92;;
7199;SDS011;3641;49.082;8.200;2023-07-29T08:13:48;4.07;;;2.40;;
7199;SDS011;3641;49.082;8.200;2023-07-29T08:16:15;3.42;;;2.42;;
7199;SDS011;3641;49.082;8.200;2023-07-29T08:18:41;5.30;;;2.08;;
7199;SDS011;3641;49.082;8.200;2023-07-29T08:21:08;7.00;;;2.40;;
7199;SDS011;3641;49.082;8.200;2023-07-29T08:23:35;6.28;;;2.42;;
7199;SDS011;3641;49.082;8.200;2023-07-29T08:26:02;6.63;;;2.10;;
7199;SDS011;3641;49.082;8.200;2023-07-29T08:28:30;4.18;;;2.42;;
7199;SDS011;3641;49.082;8.200;2023-07-29T08:30:59;6.22;;;2.35;;
7199;SDS011;3641;49.082;8.200;2023-07-29T08:33:26;4.35;;;2.22;;
7199;SDS011;3641;49.082;8.200;2023-07-29T08:35:53;3.10;;;2.08;;
7199;SDS011;3641;49.082;8.200;2023-07-29T08:38:20;4.47;;;2.35;;
7199;SDS011;3641;49.082;8.200;2023-07-29T08:40:49;2.90;;;1.73;;
7199;SDS011;3641;49.082;8.200;2023-07-29T08:43:19;4.70;;;2.25;;
7199;SDS011;3641;49.082;8.200;2023-07-29T08:45:46;6.20;;;2.10;;
7199;SDS011;3641;49.082;8.200;2023-07-29T08:48:15;2.55;;;1.85;;
7199;SDS011;3641;49.082;8.200;2023-07-29T08:50:48;4.65;;;2.05;;
7199;SDS011;3641;49.082;8.200;2023-07-29T08:53:16;3.35;;;2.30;;
7199;SDS011;3641;49.082;8.200;2023-07-29T08:55:43;5.40;;;2.17;;
7199;SDS011;3641;49.082;8.200;2023-07-29T08:58:09;4.65;;;2.40;;
7199;SDS011;3641;49.082;8.200;2023-07-29T09:00:36;3.83;;;2.13;;
7199;SDS011;3641;49.082;8.200;2023-07-29T09:03:03;4.30;;;2.33;;
7199;SDS011;3641;49.082;8.200;2023-07-29T09:05:34;3.60;;;2.38;;
7199;SDS011;3641;49.082;8.200;2023-07-29T09:08:01;4.57;;;2.20;;
7199;SDS011;3641;49.082;8.200;2023-07-29T09:10:28;3.90;;;2.15;;
7199;SDS011;3641;49.082;8.200;2023-07-29T09:12:55;4.55;;;2.15;;
7199;SDS011;3641;49.082;8.200;2023-07-29T09:15:26;6.28;;;2.22;;
7199;SDS011;3641;49.082;8.200;2023-07-29T09:17:53;5.88;;;2.45;;
7199;SDS011;3641;49.082;8.200;2023-07-29T09:20:23;4.65;;;1.88;;
7199;SDS011;3641;49.082;8.200;2023-07-29T09:22:51;2.42;;;1.85;;
7199;SDS011;3641;49.082;8.200;2023-07-29T09:25:22;3.83;;;1.90;;
7199;SDS011;3641;49.082;8.200;2023-07-29T09:27:49;4.43;;;2.10;;
7199;SDS011;3641;49.082;8.200;2023-07-29T09:30:16;2.60;;;1.77;;
7199;SDS011;3641;49.082;8.200;2023-07-29T09:32:43;3.97;;;1.70;;
7199;SDS011;3641;49.082;8.200;2023-07-29T09:35:09;3.97;;;1.65;;
7199;SDS011;3641;49.082;8.200;2023-07-29T09:37:36;5.00;;;1.92;;
7199;SDS011;3641;49.082;8.200;2023-07-29T09:40:06;3.00;;;1.67;;
7199;SDS011;3641;49.082;8.200;2023-07-29T09:42:33;4.28;;;1.77;;
7199;SDS011;3641;49.082;8.200;2023-07-29T09:44:59;2.70;;;1.50;;
7199;SDS011;3641;49.082;8.200;2023-07-29T09:47:26;4.80;;;1.60;;
7199;SDS011;3641;49.082;8.200;2023-07-29T09:49:52;3.20;;;1.58;;
7199;SDS011;3641;49.082;8.200;2023-07-29T09:52:20;2.30;;;1.65;;
7199;SDS011;3641;49.082;8.200;2023-07-29T09:54:48;2.22;;;1.40;;
7199;SDS011;3641;49.082;8.200;2023-07-29T09:57:17;3.17;;;1.60;;
7199;SDS011;3641;49.082;8.200;2023-07-29T09:59:52;1.98;;;1.52;;
7199;SDS011;3641;49.082;8.200;2023-07-29T10:02:20;3.78;;;1.75;;
7199;SDS011;3641;49.082;8.200;2023-07-29T10:04:47;3.78;;;1.70;;
7199;SDS011;3641;49.082;8.200;2023-07-29T10:07:14;4.72;;;1.98;;
7199;SDS011;3641;49.082;8.200;2023-07-29T10:09:41;2.08;;;1.50;;
7199;SDS011;3641;49.082;8.200;2023-07-29T10:12:09;2.45;;;1.60;;
7199;SDS011;3641;49.082;8.200;2023-07-29T10:14:38;2.78;;;1.45;;
7199;SDS011;3641;49.082;8.200;2023-07-29T10:17:05;4.07;;;1.75;;
7199;SDS011;3641;49.082;8.200;2023-07-29T10:19:32;17.63;;;7.00;;
7199;SDS011;3641;49.082;8.200;2023-07-29T10:22:00;19.38;;;7.85;;
7199;SDS011;3641;49.082;8.200;2023-07-29T10:24:29;2.88;;;1.80;;
7199;SDS011;3641;49.082;8.200;2023-07-29T10:26:58;2.35;;;1.40;;
7199;SDS011;3641;49.082;8.200;2023-07-29T10:29:28;4.35;;;1.50;;
7199;SDS011;3641;49.082;8.200;2023-07-29T10:31:59;2.53;;;1.20;;
7199;SDS011;3641;49.082;8.200;2023-07-29T10:34:28;4.07;;;1.48;;
7199;SDS011;3641;49.082;8.200;2023-07-29T10:36:56;3.17;;;1.30;;
7199;SDS011;3641;49.082;8.200;2023-07-29T10:39:23;1.92;;;1.38;;
7199;SDS011;3641;49.082;8.200;2023-07-29T10:41:57;2.33;;;1.40;;
7199;SDS011;3641;49.082;8.200;2023-07-29T10:47:19;3.63;;;1.23;;
7199;SDS011;3641;49.082;8.200;2023-07-29T10:49:47;2.10;;;1.40;;
7199;SDS011;3641;49.082;8.200;2023-07-29T10:52:15;2.80;;;1.50;;
7199;SDS011;3641;49.082;8.200;2023-07-29T10:54:43;2.67;;;1.52;;
7199;SDS011;3641;49.082;8.200;2023-07-29T10:57:13;2.63;;;1.42;;
7199;SDS011;3641;49.082;8.200;2023-07-29T10:59:40;5.82;;;2.05;;
7199;SDS011;3641;49.082;8.200;2023-07-29T11:02:15;4.82;;;1.60;;
7199;SDS011;3641;49.082;8.200;2023-07-29T11:04:48;2.17;;;1.50;;
7199;SDS011;3641;49.082;8.200;2023-07-29T11:07:23;3.47;;;1.73;;
7199;SDS011;3641;49.082;8.200;2023-07-29T11:09:53;4.57;;;1.95;;
7199;SDS011;3641;49.082;8.200;2023-07-29T11:12:36;3.08;;;1.88;;
7199;SDS011;3641;49.082;8.200;2023-07-29T11:15:13;15.27;;;3.30;;
7199;SDS011;3641;49.082;8.200;2023-07-29T11:17:43;9.40;;;2.75;;
7199;SDS011;3641;49.082;8.200;2023-07-29T11:20:11;19.17;;;3.13;;
7199;SDS011;3641;49.082;8.200;2023-07-29T11:22:38;10.45;;;2.80;;
7199;SDS011;3641;49.082;8.200;2023-07-29T11:25:06;5.65;;;2.50;;
7199;SDS011;3641;49.082;8.200;2023-07-29T11:27:34;5.80;;;2.60;;
7199;SDS011;3641;49.082;8.200;2023-07-29T11:30:01;3.78;;;2.47;;
7199;SDS011;3641;49.082;8.200;2023-07-29T11:32:31;5.82;;;2.60;;
7199;SDS011;3641;49.082;8.200;2023-07-29T11:35:02;5.57;;;2.50;;
7199;SDS011;3641;49.082;8.200;2023-07-29T11:37:29;7.45;;;2.75;;
7199;SDS011;3641;49.082;8.200;2023-07-29T11:39:56;4.05;;;2.53;;
7199;SDS011;3641;49.082;8.200;2023-07-29T11:42:23;11.52;;;2.97;;
7199;SDS011;3641;49.082;8.200;2023-07-29T11:44:50;4.13;;;2.17;;
7199;SDS011;3641;49.082;8.200;2023-07-29T11:47:16;4.97;;;2.38;;
7199;SDS011;3641;49.082;8.200;2023-07-29T11:49:43;4.15;;;2.10;;
7199;SDS011;3641;49.082;8.200;2023-07-29T11:52:10;4.53;;;2.58;;
7199;SDS011;3641;49.082;8.200;2023-07-29T11:54:39;8.25;;;2.47;;
7199;SDS011;3641;49.082;8.200;2023-07-29T11:57:06;6.90;;;2.70;;
7199;SDS011;3641;49.082;8.200;2023-07-29T11:59:33;3.72;;;2.17;;
7199;SDS011;3641;49.082;8.200;2023-07-29T12:02:00;2.40;;;2.13;;
7199;SDS011;3641;49.082;8.200;2023-07-29T12:04:26;4.90;;;2.30;;
7199;SDS011;3641;49.082;8.200;2023-07-29T12:06:53;4.50;;;2.22;;
7199;SDS011;3641;49.082;8.200;2023-07-29T12:09:21;5.55;;;2.30;;
7199;SDS011;3641;49.082;8.200;2023-07-29T12:11:48;3.30;;;2.05;;
7199;SDS011;3641;49.082;8.200;2023-07-29T12:14:16;2.83;;;2.20;;
7199;SDS011;3641;49.082;8.200;2023-07-29T12:16:42;3.80;;;1.75;;
7199;SDS011;3641;49.082;8.200;2023-07-29T12:19:11;3.92;;;1.67;;
7199;SDS011;3641;49.082;8.200;2023-07-29T12:21:38;3.08;;;1.70;;
7199;SDS011;3641;49.082;8.200;2023-07-29T12:24:06;3.20;;;2.20;;
7199;SDS011;3641;49.082;8.200;2023-07-29T12:26:35;4.03;;;2.25;;
7199;SDS011;3641;49.082;8.200;2023-07-29T12:29:10;4.07;;;1.80;;
7199;SDS011;3641;49.082;8.200;2023-07-29T12:31:37;2.30;;;1.80;;
7199;SDS011;3641;49.082;8.200;2023-07-29T12:34:04;2.88;;;1.73;;
7199;SDS011;3641;49.082;8.200;2023-07-29T12:36:39;2.22;;;1.70;;
7199;SDS011;3641;49.082;8.200;2023-07-29T12:39:15;2.97;;;1.60;;
7199;SDS011;3641;49.082;8.200;2023-07-29T12:41:43;2.42;;;1.63;;
7199;SDS011;3641;49.082;8.200;2023-07-29T12:44:10;3.92;;;1.90;;
7199;SDS011;3641;49.082;8.200;2023-07-29T12:46:37;2.72;;;1.77;;
7199;SDS011;3641;49.082;8.200;2023-07-29T12:49:03;5.10;;;2.42;;
7199;SDS011;3641;49.082;8.200;2023-07-29T12:51:29;3.50;;;1.70;;
7199;SDS011;3641;49.082;8.200;2023-07-29T12:53:56;2.92;;;1.63;;
7199;SDS011;3641;49.082;8.200;2023-07-29T12:56:22;2.45;;;1.42;;
7199;SDS011;3641;49.082;8.200;2023-07-29T12:58:50;4.07;;;1.65;;
7199;SDS011;3641;49.082;8.200;2023-07-29T13:01:16;2.42;;;1.70;;
7199;SDS011;3641;49.082;8.200;2023-07-29T13:03:43;4.72;;;2.00;;
7199;SDS011;3641;49.082;8.200;2023-07-29T13:06:09;1.80;;;1.38;;
7199;SDS011;3641;49.082;8.200;2023-07-29T13:08:36;3.60;;;1.80;;
7199;SDS011;3641;49.082;8.200;2023-07-29T13:11:02;3.33;;;1.90;;
7199;SDS011;3641;49.082;8.200;2023-07-29T13:13:29;4.13;;;1.70;;
7199;SDS011;3641;49.082;8.200;2023-07-29T13:15:57;3.10;;;1.65;;
7199;SDS011;3641;49.082;8.200;2023-07-29T13:18:23;2.45;;;1.30;;
7199;SDS011;3641;49.082;8.200;2023-07-29T13:20:50;2.17;;;1.42;;
7199;SDS011;3641;49.082;8.200;2023-07-29T13:23:16;2.17;;;1.40;;
7199;SDS011;3641;49.082;8.200;2023-07-29T13:25:43;3.13;;;1.48;;
7199;SDS011;3641;49.082;8.200;2023-07-29T13:28:10;3.10;;;1.60;;
7199;SDS011;3641;49.082;8.200;2023-07-29T13:30:38;2.20;;;1.67;;
7199;SDS011;3641;49.082;8.200;2023-07-29T13:33:06;2.75;;;1.83;;
7199;SDS011;3641;49.082;8.200;2023-07-29T13:35:32;2.35;;;1.60;;
7199;SDS011;3641;49.082;8.200;2023-07-29T13:37:59;4.25;;;1.60;;
7199;SDS011;3641;49.082;8.200;2023-07-29T13:40:25;4.22;;;1.60;;
7199;SDS011;3641;49.082;8.200;2023-07-29T13:42:52;4.03;;;1.38;;
7199;SDS011;3641;49.082;8.200;2023-07-29T13:45:18;5.60;;;1.70;;
7199;SDS011;3641;49.082;8.200;2023-07-29T13:47:45;1.88;;;1.40;;
7199;SDS011;3641;49.082;8.200;2023-07-29T13:50:12;5.05;;;1.55;;
7199;SDS011;3641;49.082;8.200;2023-07-29T13:52:39;2.65;;;1.40;;
7199;SDS011;3641;49.082;8.200;2023-07-29T13:55:05;2.63;;;1.65;;
7199;SDS011;3641;49.082;8.200;2023-07-29T13:57:32;1.92;;;1.20;;
7199;SDS011;3641;49.082;8.200;2023-07-29T13:59:59;1.70;;;1.30;;
7199;SDS011;3641;49.082;8.200;2023-07-29T14:02:25;1.58;;;1.40;;
7199;SDS011;3641;49.082;8.200;2023-07-29T14:04:52;3.83;;;1.70;;
7199;SDS011;3641;49.082;8.200;2023-07-29T14:07:19;13.23;;;2.38;;
7199;SDS011;3641;49.082;8.200;2023-07-29T14:09:46;4.00;;;1.70;;
7199;SDS011;3641;49.082;8.200;2023-07-29T14:12:12;1.88;;;1.40;;
7199;SDS011;3641;49.082;8.200;2023-07-29T14:14:40;1.95;;;1.38;;
7199;SDS011;3641;49.082;8.200;2023-07-29T14:17:06;1.65;;;1.50;;
7199;SDS011;3641;49.082;8.200;2023-07-29T14:19:33;3.72;;;1.63;;
7199;SDS011;3641;49.082;8.200;2023-07-29T14:22:00;4.40;;;1.70;;
7199;SDS011;3641;49.082;8.200;2023-07-29T14:24:27;3.50;;;1.98;;
7199;SDS011;3641;49.082;8.200;2023-07-29T14:26:54;3.53;;;1.60;;
7199;SDS011;3641;49.082;8.200;2023-07-29T14:29:20;2.55;;;1.55;;
7199;SDS011;3641;49.082;8.200;2023-07-29T14:31:47;3.17;;;1.35;;
7199;SDS011;3641;49.082;8.200;2023-07-29T14:34:13;2.70;;;1.40;;
7199;SDS011;3641;49.082;8.200;2023-07-29T14:36:40;2.28;;;1.48;;
7199;SDS011;3641;49.082;8.200;2023-07-29T14:39:07;2.13;;;1.40;;
7199;SDS011;3641;49.082;8.200;2023-07-29T14:41:34;2.78;;;1.63;;
7199;SDS011;3641;49.082;8.200;2023-07-29T14:44:01;4.32;;;1.77;;
7199;SDS011;3641;49.082;8.200;2023-07-29T14:46:27;2.92;;;1.40;;
7199;SDS011;3641;49.082;8.200;2023-07-29T14:48:54;3.35;;;1.48;;
7199;SDS011;3641;49.082;8.200;2023-07-29T14:51:20;2.75;;;1.55;;
7199;SDS011;3641;49.082;8.200;2023-07-29T14:53:48;2.03;;;1.50;;
7199;SDS011;3641;49.082;8.200;2023-07-29T14:56:14;4.07;;;1.67;;
7199;SDS011;3641;49.082;8.200;2023-07-29T14:58:44;3.63;;;1.55;;
7199;SDS011;3641;49.082;8.200;2023-07-29T15:01:10;3.15;;;1.73;;
7199;SDS011;3641;49.082;8.200;2023-07-29T15:03:37;2.38;;;1.65;;
7199;SDS011;3641;49.082;8.200;2023-07-29T15:06:03;2.80;;;1.83;;
7199;SDS011;3641;49.082;8.200;2023-07-29T15:08:30;2.15;;;1.25;;
7199;SDS011;3641;49.082;8.200;2023-07-29T15:10:56;3.40;;;2.15;;
7199;SDS011;3641;49.082;8.200;2023-07-29T15:13:22;2.50;;;1.50;;
7199;SDS011;3641;49.082;8.200;2023-07-29T15:15:50;2.25;;;1.90;;
7199;SDS011;3641;49.082;8.200;2023-07-29T15:18:17;4.57;;;2.08;;
7199;SDS011;3641;49.082;8.200;2023-07-29T15:20:43;3.50;;;1.70;;